Terminal Aerodrome Forecast
Issued by NWS

Home | Current Version | Previous Version | Text Only | Print | Product List | Glossary On
Versions: 1 2 3 4 5 6 7 8 9 10 11 12 13 14 15 16 17 18 19 20
979
FTUS43 KDLH 210521
TAFHIB
TAF
KHIB 210521Z 2106/2206 33009KT P6SM SCT080
     FM210900 33003KT 4SM BR FEW080
      TEMPO 2109/2112 1SM BR
     FM211300 34008KT P6SM SCT120
     FM220000 30004KT P6SM SCT250=

USA.gov is the U.S. government's official web portal to all federal, state and local government web resources and services.